createdAt,value
2018-03-26T00:02:08.862Z,9.54
2018-03-26T00:04:43.926Z,9.58
2018-03-26T00:07:19.169Z,9.59
2018-03-26T00:09:53.965Z,9.54
2018-03-26T00:12:28.855Z,9.53
2018-03-26T00:15:03.750Z,9.48
2018-03-26T00:17:38.347Z,9.38
2018-03-26T00:20:13.457Z,9.34
2018-03-26T00:22:48.426Z,9.27
2018-03-26T00:25:23.383Z,9.21
2018-03-26T00:27:58.261Z,9.19
2018-03-26T00:30:33.023Z,9.21
2018-03-26T00:33:08.203Z,9.20
2018-03-26T00:35:43.498Z,9.17
2018-03-26T00:38:19.049Z,9.13
2018-03-26T00:40:54.042Z,9.18
2018-03-26T00:43:29.004Z,9.20
2018-03-26T00:46:04.329Z,9.19
2018-03-26T00:48:39.894Z,9.22
2018-03-26T00:51:14.547Z,9.20
2018-03-26T00:53:49.444Z,9.17
2018-03-26T00:56:24.280Z,9.18
2018-03-26T00:58:59.374Z,9.21
2018-03-26T01:01:34.526Z,9.23
2018-03-26T01:04:09.311Z,9.22
2018-03-26T01:06:44.329Z,9.21
2018-03-26T01:09:19.280Z,9.12
2018-03-26T01:11:54.524Z,9.12
2018-03-26T01:14:29.438Z,9.11
2018-03-26T01:17:04.470Z,9.08
2018-03-26T01:19:39.236Z,9.06
2018-03-26T01:22:14.107Z,9.07
2018-03-26T01:24:49.484Z,9.10
2018-03-26T01:27:24.502Z,9.13
2018-03-26T01:29:59.558Z,9.14
2018-03-26T01:32:34.332Z,9.14
2018-03-26T01:35:09.379Z,9.11
2018-03-26T01:37:44.338Z,9.09
2018-03-26T01:40:19.483Z,9.07
2018-03-26T01:42:54.258Z,9.04
2018-03-26T01:45:29.116Z,8.99
2018-03-26T01:48:03.915Z,8.96
2018-03-26T01:50:38.434Z,8.95
2018-03-26T01:53:13.390Z,8.90
2018-03-26T01:55:48.208Z,8.82
2018-03-26T01:58:23.174Z,8.73
2018-03-26T02:00:58.174Z,8.77
2018-03-26T02:03:33.165Z,8.84
2018-03-26T02:06:08.397Z,8.89
2018-03-26T02:08:43.315Z,8.94
2018-03-26T02:11:18.146Z,8.95
2018-03-26T02:13:53.197Z,8.97
2018-03-26T02:16:28.205Z,9.00
2018-03-26T02:19:04.097Z,9.00
2018-03-26T02:21:39.090Z,8.97
2018-03-26T02:24:14.401Z,8.91
2018-03-26T02:26:49.290Z,8.86
2018-03-26T02:29:24.366Z,8.82
2018-03-26T02:31:59.287Z,8.81
2018-03-26T02:34:34.250Z,8.83
2018-03-26T02:37:09.476Z,8.82
2018-03-26T02:39:44.471Z,8.83
2018-03-26T02:42:19.483Z,8.84
2018-03-26T02:44:54.379Z,8.86
2018-03-26T02:47:29.414Z,8.87
2018-03-26T02:50:04.206Z,8.86
2018-03-26T02:52:39.327Z,8.83
2018-03-26T02:55:13.894Z,8.80
2018-03-26T02:57:48.579Z,8.79
2018-03-26T03:00:23.671Z,8.76
2018-03-26T03:02:58.468Z,8.65
2018-03-26T03:05:33.405Z,8.58
2018-03-26T03:08:08.254Z,8.59
2018-03-26T03:10:43.067Z,8.60
2018-03-26T03:13:18.395Z,8.59
2018-03-26T03:15:53.382Z,8.57
2018-03-26T03:18:28.303Z,8.51
2018-03-26T03:21:02.941Z,8.48
2018-03-26T03:23:38.449Z,8.45
2018-03-26T03:26:13.719Z,8.35
2018-03-26T03:28:48.406Z,8.36
2018-03-26T03:31:23.319Z,8.37
2018-03-26T03:33:58.618Z,8.36
2018-03-26T03:36:33.722Z,8.35
2018-03-26T03:39:08.742Z,8.29
2018-03-26T03:41:43.505Z,8.29
2018-03-26T03:44:18.666Z,8.28
2018-03-26T03:46:53.437Z,8.26
2018-03-26T03:49:28.555Z,8.21
2018-03-26T03:52:04.173Z,8.17
2018-03-26T03:54:39.257Z,8.15
2018-03-26T03:57:14.535Z,8.15
2018-03-26T03:59:48.992Z,8.18
2018-03-26T04:02:23.839Z,8.25
2018-03-26T04:04:59.534Z,8.26
2018-03-26T04:07:34.484Z,8.20
2018-03-26T04:10:09.942Z,8.09
2018-03-26T04:12:44.729Z,7.93
2018-03-26T04:15:19.819Z,7.88
2018-03-26T04:17:54.866Z,7.85
2018-03-26T04:20:29.577Z,7.81
2018-03-26T04:23:04.911Z,7.75
2018-03-26T04:25:39.944Z,7.78
2018-03-26T04:28:14.798Z,7.78
2018-03-26T04:30:49.743Z,7.81
2018-03-26T04:33:24.575Z,7.71
2018-03-26T04:35:59.483Z,7.60
2018-03-26T04:38:34.662Z,7.57
2018-03-26T04:41:09.694Z,7.49
2018-03-26T04:43:44.667Z,7.43
2018-03-26T04:46:19.804Z,7.40
2018-03-26T04:48:55.545Z,7.34
2018-03-26T04:51:30.637Z,7.29
2018-03-26T04:54:05.650Z,7.29
2018-03-26T04:56:40.654Z,7.27
2018-03-26T04:59:15.857Z,7.26
2018-03-26T05:01:50.673Z,7.25
2018-03-26T05:04:25.837Z,7.24
2018-03-26T05:07:01.122Z,7.20
2018-03-26T05:09:35.893Z,7.19
2018-03-26T05:12:10.852Z,7.21
2018-03-26T05:14:45.794Z,7.21
2018-03-26T05:17:20.867Z,7.21
2018-03-26T05:19:55.749Z,7.20
2018-03-26T05:22:30.878Z,7.24
2018-03-26T05:25:06.202Z,7.21
2018-03-26T05:27:40.740Z,7.16
2018-03-26T05:30:15.940Z,7.12
2018-03-26T05:32:51.834Z,7.13
2018-03-26T05:35:26.690Z,7.16
2018-03-26T05:38:01.623Z,7.13
2018-03-26T05:40:36.701Z,7.02
2018-03-26T05:43:11.060Z,6.93
2018-03-26T05:45:46.230Z,6.86
2018-03-26T05:48:22.012Z,6.84
2018-03-26T05:50:56.770Z,6.85
2018-03-26T05:53:32.067Z,6.80
2018-03-26T05:56:06.918Z,6.75
2018-03-26T05:58:41.810Z,6.79
2018-03-26T06:01:16.935Z,6.76
2018-03-26T06:03:51.492Z,6.79
2018-03-26T06:06:26.663Z,6.88
2018-03-26T06:09:01.786Z,6.92
2018-03-26T06:11:36.858Z,6.88
2018-03-26T06:14:12.054Z,6.79
2018-03-26T06:16:51.914Z,6.62
2018-03-26T06:19:26.819Z,6.48
2018-03-26T06:22:01.607Z,6.46
2018-03-26T06:24:36.469Z,6.40
2018-03-26T06:27:10.915Z,6.41
2018-03-26T06:29:45.771Z,6.45
2018-03-26T06:32:20.794Z,6.40
2018-03-26T06:34:55.557Z,6.36
2018-03-26T06:37:35.539Z,6.31
2018-03-26T06:40:10.161Z,6.33
2018-03-26T06:42:44.913Z,6.38
2018-03-26T06:45:20.251Z,6.30
2018-03-26T06:47:55.263Z,6.21
2018-03-26T06:50:30.037Z,6.25
2018-03-26T06:53:04.987Z,6.09
2018-03-26T06:55:39.507Z,6.00
2018-03-26T06:58:14.767Z,6.05
2018-03-26T07:00:49.849Z,6.11
2018-03-26T07:03:24.886Z,6.03
2018-03-26T07:06:00.010Z,6.01
2018-03-26T07:08:34.907Z,6.02
2018-03-26T07:11:09.926Z,6.00
2018-03-26T07:13:44.907Z,6.00
2018-03-26T07:16:19.809Z,6.04
2018-03-26T07:18:54.905Z,6.10
2018-03-26T07:21:29.822Z,6.26
2018-03-26T07:24:05.309Z,6.34
2018-03-26T07:26:40.447Z,6.33
2018-03-26T07:29:15.403Z,6.20
2018-03-26T07:31:50.835Z,6.04
2018-03-26T07:34:26.315Z,5.88
2018-03-26T07:37:01.239Z,5.81
2018-03-26T07:39:36.220Z,5.82
2018-03-26T07:42:11.175Z,5.92
2018-03-26T07:44:45.535Z,6.05
2018-03-26T07:47:20.570Z,6.11
2018-03-26T07:49:55.514Z,6.12
2018-03-26T07:52:30.785Z,6.15
2018-03-26T07:55:05.203Z,6.10
2018-03-26T07:57:40.376Z,6.15
2018-03-26T08:00:15.147Z,6.19
2018-03-26T08:02:50.281Z,6.25
2018-03-26T08:05:24.947Z,6.12
2018-03-26T08:08:00.082Z,6.04
2018-03-26T08:10:34.954Z,6.00
2018-03-26T08:13:10.144Z,6.03
2018-03-26T08:15:45.205Z,6.10
2018-03-26T08:18:20.067Z,6.12
2018-03-26T08:20:55.220Z,6.09
2018-03-26T08:23:30.311Z,6.14
2018-03-26T08:26:05.137Z,6.22
2018-03-26T08:28:40.165Z,6.29
2018-03-26T08:31:15.392Z,6.37
2018-03-26T08:33:50.077Z,6.46
2018-03-26T08:36:25.375Z,6.44
2018-03-26T08:39:00.115Z,6.44
2018-03-26T08:41:35.166Z,6.53
2018-03-26T08:44:10.041Z,6.57
2018-03-26T08:46:45.514Z,6.64
2018-03-26T08:49:20.465Z,6.63
2018-03-26T08:51:55.622Z,6.58
2018-03-26T08:54:30.505Z,6.51
2018-03-26T08:57:05.601Z,6.49
2018-03-26T08:59:40.333Z,6.47
2018-03-26T09:02:15.338Z,6.46
2018-03-26T09:04:50.291Z,6.41
2018-03-26T09:07:25.170Z,6.20
2018-03-26T09:10:00.100Z,5.97
2018-03-26T09:12:35.068Z,5.78
2018-03-26T09:15:10.148Z,5.54
2018-03-26T09:17:45.246Z,5.46
2018-03-26T09:20:20.250Z,5.59
2018-03-26T09:22:55.134Z,5.83
2018-03-26T09:25:30.130Z,6.11
2018-03-26T09:28:05.375Z,6.30
2018-03-26T09:30:40.266Z,6.37
2018-03-26T09:33:15.500Z,6.24
2018-03-26T09:35:50.363Z,6.05
2018-03-26T09:38:25.206Z,5.97
2018-03-26T09:40:59.811Z,5.99
2018-03-26T09:43:34.978Z,6.08
2018-03-26T09:46:10.210Z,6.05
2018-03-26T09:48:45.173Z,6.11
2018-03-26T09:51:20.252Z,6.08
2018-03-26T09:53:55.272Z,6.13
2018-03-26T09:56:29.808Z,6.31
2018-03-26T09:59:05.666Z,6.48
2018-03-26T10:01:57.163Z,6.54
2018-03-26T10:04:31.732Z,6.55
2018-03-26T10:07:06.593Z,6.46
2018-03-26T10:09:41.558Z,6.44
2018-03-26T10:12:16.970Z,6.38
2018-03-26T10:14:51.571Z,6.40
2018-03-26T10:17:26.510Z,6.34
2018-03-26T10:20:01.577Z,6.34
2018-03-26T10:22:36.455Z,6.39
2018-03-26T10:25:11.044Z,6.34
2018-03-26T10:27:46.311Z,6.35
2018-03-26T10:30:21.431Z,6.34
2018-03-26T10:32:55.955Z,6.32
2018-03-26T10:35:31.430Z,6.39
2018-03-26T10:38:06.670Z,6.32
2018-03-26T10:40:41.626Z,6.35
2018-03-26T10:43:16.889Z,6.49
2018-03-26T10:45:52.176Z,6.57
2018-03-26T10:48:26.522Z,6.56
2018-03-26T10:51:01.592Z,6.52
2018-03-26T10:53:36.621Z,6.56
2018-03-26T10:56:11.641Z,6.69
2018-03-26T10:58:46.379Z,6.64
2018-03-26T11:01:21.338Z,6.48
2018-03-26T11:03:56.471Z,6.41
2018-03-26T11:06:31.368Z,6.37
2018-03-26T11:09:05.410Z,6.44
2018-03-26T11:11:40.486Z,6.41
2018-03-26T11:14:15.321Z,6.43
2018-03-26T11:16:49.666Z,6.38
2018-03-26T11:19:24.818Z,6.35
2018-03-26T11:21:59.858Z,6.35
2018-03-26T11:24:34.381Z,6.39
2018-03-26T11:27:09.650Z,6.54
2018-03-26T11:29:43.954Z,6.54
2018-03-26T11:32:19.002Z,6.54
2018-03-26T11:34:54.462Z,6.61
2018-03-26T11:37:29.462Z,6.67
2018-03-26T11:40:05.190Z,6.77
2018-03-26T11:42:40.409Z,6.79
2018-03-26T11:45:15.627Z,6.71
2018-03-26T11:47:50.015Z,6.71
2018-03-26T11:50:25.038Z,6.66
2018-03-26T11:53:00.514Z,6.63
2018-03-26T11:55:35.638Z,6.76
2018-03-26T11:58:11.082Z,6.92
2018-03-26T12:00:45.688Z,7.04
2018-03-26T12:03:20.548Z,7.07
2018-03-26T12:05:55.761Z,7.12
2018-03-26T12:08:31.091Z,7.21
2018-03-26T12:11:06.358Z,7.20
2018-03-26T12:13:41.341Z,7.16
2018-03-26T12:16:16.470Z,7.11
2018-03-26T12:18:51.574Z,7.00
2018-03-26T12:21:26.562Z,6.95
2018-03-26T12:24:12.734Z,6.92
2018-03-26T12:26:47.514Z,6.98
2018-03-26T12:29:33.604Z,6.97
2018-03-26T12:32:08.058Z,6.96
2018-03-26T12:34:54.096Z,6.92
2018-03-26T12:37:29.050Z,6.98
2018-03-26T12:40:03.914Z,7.05
2018-03-26T12:42:38.702Z,7.16
2018-03-26T12:45:24.983Z,7.30
2018-03-26T12:47:59.804Z,7.40
2018-03-26T12:50:45.698Z,7.40
2018-03-26T12:53:20.833Z,7.43
2018-03-26T12:55:55.579Z,7.54
2018-03-26T12:58:41.448Z,7.66
2018-03-26T13:04:20.119Z,7.81
2018-03-26T13:06:55.577Z,7.84
2018-03-26T13:09:30.590Z,7.89
2018-03-26T13:12:06.011Z,7.91
2018-03-26T13:14:40.763Z,7.98
2018-03-26T13:17:15.754Z,8.01
2018-03-26T13:19:50.474Z,8.00
2018-03-26T13:22:25.657Z,7.88
2018-03-26T13:25:01.026Z,7.84
2018-03-26T13:27:35.642Z,7.84
2018-03-26T13:30:11.065Z,7.88
2018-03-26T13:32:45.791Z,7.91
2018-03-26T13:35:20.964Z,7.72
2018-03-26T13:37:55.812Z,7.47
2018-03-26T13:40:31.086Z,7.29
2018-03-26T13:43:09.620Z,7.24
2018-03-26T13:45:44.453Z,7.20
2018-03-26T13:48:19.967Z,7.04
2018-03-26T13:50:54.846Z,6.89
2018-03-26T13:53:29.564Z,6.94
2018-03-26T13:56:05.621Z,7.02
2018-03-26T13:58:40.257Z,7.09
2018-03-26T14:01:15.710Z,7.04
2018-03-26T14:03:50.877Z,7.16
2018-03-26T14:06:26.086Z,7.25
2018-03-26T14:09:14.092Z,7.18
2018-03-26T14:12:00.186Z,7.13
2018-03-26T14:14:45.877Z,7.18
2018-03-26T14:17:32.276Z,7.30
2018-03-26T14:20:07.703Z,7.39
2018-03-26T14:22:42.075Z,7.49
2018-03-26T14:25:17.054Z,7.56
2018-03-26T14:27:51.746Z,7.59
2018-03-26T14:30:26.802Z,7.56
2018-03-26T14:33:00.996Z,7.56
2018-03-26T14:35:43.541Z,7.57
2018-03-26T14:38:18.055Z,7.60
2018-03-26T14:40:53.111Z,7.57
2018-03-26T14:43:27.873Z,7.32
2018-03-26T14:46:02.238Z,7.18
2018-03-26T14:48:37.048Z,7.21
2018-03-26T14:51:12.091Z,7.38
2018-03-26T14:53:46.721Z,7.49
2018-03-26T14:56:22.172Z,7.47
2018-03-26T14:58:56.925Z,7.50
2018-03-26T15:01:31.754Z,7.46
2018-03-26T15:04:07.267Z,7.37
2018-03-26T15:06:43.007Z,7.24
2018-03-26T15:09:18.237Z,7.25
2018-03-26T15:11:53.014Z,7.29
2018-03-26T15:14:28.094Z,7.35
2018-03-26T15:17:03.347Z,7.29
2018-03-26T15:19:38.056Z,7.23
2018-03-26T15:22:13.374Z,7.23
2018-03-26T15:24:48.138Z,7.33
2018-03-26T15:27:23.087Z,7.31
2018-03-26T15:29:58.425Z,7.42
2018-03-26T15:32:33.815Z,7.44
2018-03-26T15:35:09.302Z,7.46
2018-03-26T15:37:44.378Z,7.57
2018-03-26T15:40:19.223Z,7.69
2018-03-26T15:42:54.238Z,7.76
2018-03-26T15:45:29.171Z,7.66
2018-03-26T15:48:04.671Z,7.66
2018-03-26T15:50:38.861Z,7.68
2018-03-26T15:53:14.218Z,7.70
2018-03-26T15:55:49.050Z,7.72
2018-03-26T15:58:23.814Z,7.71
2018-03-26T16:00:58.681Z,7.78
2018-03-26T16:03:34.086Z,7.74
2018-03-26T16:06:08.464Z,7.72
2018-03-26T16:08:43.584Z,7.76
2018-03-26T16:11:18.059Z,7.80
2018-03-26T16:13:53.238Z,7.85
2018-03-26T16:16:28.274Z,7.83
2018-03-26T16:19:03.345Z,7.87
2018-03-26T16:21:38.352Z,7.95
2018-03-26T16:24:13.361Z,8.04
2018-03-26T16:26:48.166Z,8.05
2018-03-26T16:29:23.163Z,8.08
2018-03-26T16:31:58.162Z,8.09
2018-03-26T16:34:33.098Z,8.13
2018-03-26T16:37:08.454Z,8.14
2018-03-26T16:39:44.374Z,8.15
2018-03-26T16:42:24.869Z,8.17
2018-03-26T16:44:59.650Z,8.18
2018-03-26T16:47:34.386Z,8.18
2018-03-26T16:50:09.131Z,8.20
2018-03-26T16:52:44.368Z,8.23
2018-03-26T16:55:19.560Z,8.27
2018-03-26T16:57:54.214Z,8.25
2018-03-26T17:00:28.905Z,8.25
2018-03-26T17:03:03.308Z,8.24
2018-03-26T17:05:38.404Z,8.31
2018-03-26T17:08:13.425Z,8.28
2018-03-26T17:10:48.387Z,8.20
2018-03-26T17:13:23.685Z,8.05
2018-03-26T17:15:58.417Z,7.88
2018-03-26T17:18:32.878Z,7.78
2018-03-26T17:21:08.142Z,7.70
2018-03-26T17:23:42.817Z,7.62
2018-03-26T17:26:17.738Z,7.58
2018-03-26T17:28:55.574Z,7.51
2018-03-26T17:31:29.945Z,7.42
2018-03-26T17:34:06.631Z,7.34
2018-03-26T17:36:41.379Z,7.27
2018-03-26T17:39:16.293Z,7.19
2018-03-26T17:41:51.268Z,7.11
2018-03-26T17:44:25.666Z,6.99
2018-03-26T17:47:00.581Z,6.90
2018-03-26T17:49:35.722Z,6.75
2018-03-26T17:52:10.519Z,6.50
2018-03-26T17:54:45.611Z,6.39
2018-03-26T17:57:20.580Z,6.33
2018-03-26T17:59:55.399Z,6.28
2018-03-26T18:02:29.902Z,6.33
2018-03-26T18:05:06.014Z,6.32
2018-03-26T18:07:40.581Z,6.28
2018-03-26T18:10:16.007Z,6.22
2018-03-26T18:12:51.563Z,6.17
2018-03-26T18:15:26.520Z,6.13
2018-03-26T18:18:01.443Z,6.11
2018-03-26T18:20:36.493Z,6.10
2018-03-26T18:23:11.691Z,6.08
2018-03-26T18:25:46.391Z,6.05
2018-03-26T18:28:21.584Z,6.00
2018-03-26T18:30:56.522Z,5.95
2018-03-26T18:33:31.690Z,5.92
2018-03-26T18:36:06.561Z,5.87
2018-03-26T18:38:41.361Z,5.78
2018-03-26T18:41:16.125Z,5.67
2018-03-26T18:43:51.465Z,5.59
2018-03-26T18:46:26.402Z,5.51
2018-03-26T18:49:01.537Z,5.46
2018-03-26T18:51:36.639Z,5.43
2018-03-26T18:54:11.897Z,5.41
2018-03-26T18:56:47.437Z,5.38
2018-03-26T18:59:22.583Z,5.37
2018-03-26T19:01:57.474Z,5.36
2018-03-26T19:04:32.551Z,5.37
2018-03-26T19:07:07.922Z,5.39
2018-03-26T19:09:42.590Z,5.38
2018-03-26T19:12:17.333Z,5.36
2018-03-26T19:14:52.542Z,5.31
2018-03-26T19:17:27.531Z,5.22
2018-03-26T19:20:02.585Z,5.18
2018-03-26T19:22:37.495Z,5.19
2018-03-26T19:25:12.691Z,5.15
2018-03-26T19:27:47.682Z,5.13
2018-03-26T19:30:22.629Z,5.12
2018-03-26T19:32:57.613Z,5.15
2018-03-26T19:35:32.277Z,5.17
2018-03-26T19:38:07.488Z,5.18
2018-03-26T19:40:42.289Z,5.19
2018-03-26T19:43:17.646Z,5.12
2018-03-26T19:45:52.770Z,5.08
2018-03-26T19:48:28.356Z,5.07
2018-03-26T19:51:03.545Z,5.10
2018-03-26T19:53:38.571Z,5.11
2018-03-26T19:56:13.598Z,5.10
2018-03-26T19:58:48.906Z,5.11
2018-03-26T20:01:23.982Z,5.15
2018-03-26T20:03:58.550Z,5.18
2018-03-26T20:06:33.673Z,5.20
2018-03-26T20:09:08.886Z,5.21
2018-03-26T20:11:43.724Z,5.19
2018-03-26T20:14:18.905Z,5.20
2018-03-26T20:16:53.926Z,5.16
2018-03-26T20:19:28.839Z,5.08
2018-03-26T20:22:03.613Z,5.07
2018-03-26T20:24:38.723Z,5.02
2018-03-26T20:27:13.938Z,4.99
2018-03-26T20:29:48.701Z,5.06
2018-03-26T20:32:23.594Z,5.11
2018-03-26T20:34:58.627Z,5.06
2018-03-26T20:37:33.693Z,5.07
2018-03-26T20:40:08.386Z,5.09
2018-03-26T20:42:43.300Z,5.10
2018-03-26T20:45:18.274Z,5.11
2018-03-26T20:47:52.890Z,5.10
2018-03-26T20:50:27.919Z,5.10
2018-03-26T20:53:02.826Z,5.06
2018-03-26T20:55:37.736Z,5.07
2018-03-26T20:58:13.021Z,5.13
2018-03-26T21:00:47.826Z,5.17
2018-03-26T21:03:22.569Z,5.18
2018-03-26T21:05:57.786Z,5.21
2018-03-26T21:08:32.766Z,5.21
2018-03-26T21:11:08.060Z,5.23
2018-03-26T21:13:42.761Z,5.21
2018-03-26T21:16:17.986Z,5.15
2018-03-26T21:18:52.671Z,5.16
2018-03-26T21:21:27.808Z,5.12
2018-03-26T21:24:02.939Z,5.06
2018-03-26T21:26:37.988Z,4.96
2018-03-26T21:29:12.782Z,4.81
2018-03-26T21:31:47.563Z,4.72
2018-03-26T21:34:22.849Z,4.69
2018-03-26T21:36:57.625Z,4.65
2018-03-26T21:39:32.847Z,4.58
2018-03-26T21:42:07.591Z,4.55
2018-03-26T21:44:42.936Z,4.53
2018-03-26T21:47:17.941Z,4.51
2018-03-26T21:49:52.598Z,4.52
2018-03-26T21:52:27.973Z,4.47
2018-03-26T21:55:02.726Z,4.40
2018-03-26T21:57:37.830Z,4.41
2018-03-26T22:00:21.182Z,4.43
2018-03-26T22:02:56.082Z,4.48
2018-03-26T22:05:31.154Z,4.51
2018-03-26T22:08:07.325Z,4.53
2018-03-26T22:10:41.834Z,4.55
2018-03-26T22:13:16.915Z,4.55
2018-03-26T22:15:51.794Z,4.55
2018-03-26T22:18:26.242Z,4.53
2018-03-26T22:21:01.306Z,4.51
2018-03-26T22:23:35.773Z,4.47
2018-03-26T22:26:11.095Z,4.46
2018-03-26T22:28:46.223Z,4.44
2018-03-26T22:31:21.738Z,4.37
2018-03-26T22:33:56.589Z,4.32
2018-03-26T22:36:32.002Z,4.30
2018-03-26T22:39:07.419Z,4.28
2018-03-26T22:41:42.138Z,4.27
2018-03-26T22:44:17.266Z,4.26
2018-03-26T22:46:52.467Z,4.33
2018-03-26T22:49:27.502Z,4.34
2018-03-26T22:52:02.329Z,4.37
2018-03-26T22:54:37.125Z,4.43
2018-03-26T22:57:12.228Z,4.43
2018-03-26T22:59:47.026Z,4.38
2018-03-26T23:02:21.662Z,4.36
2018-03-26T23:04:56.397Z,4.33
2018-03-26T23:07:31.129Z,4.33
2018-03-26T23:10:07.034Z,4.34
2018-03-26T23:12:41.667Z,4.35
2018-03-26T23:15:16.383Z,4.33
2018-03-26T23:17:51.279Z,4.33
2018-03-26T23:20:26.090Z,4.35
2018-03-26T23:23:01.201Z,4.35
2018-03-26T23:25:35.965Z,4.33
2018-03-26T23:28:11.343Z,4.33
2018-03-26T23:30:46.242Z,4.32
2018-03-26T23:33:22.050Z,4.29
2018-03-26T23:35:57.082Z,4.27
2018-03-26T23:38:32.092Z,4.23
2018-03-26T23:41:07.494Z,4.21
2018-03-26T23:43:42.261Z,4.19
2018-03-26T23:46:17.283Z,4.14
2018-03-26T23:48:52.482Z,4.06
2018-03-26T23:51:27.311Z,3.99
2018-03-26T23:54:02.413Z,3.97
2018-03-26T23:56:37.442Z,3.97
2018-03-26T23:59:12.131Z,3.98
